SWR19M EDFH-EDDG
Flight info
| Callsign | SWR19M |
|---|---|
| Flight time | 0h 31m |
| Altitude | 21000 |
| Route | RUDOT2E/03 RUDOT DCT ADMUM DCT BAMSU |
| Aircraft | A320/M-SDE3FGHIRWY/LB1 |
Departure
| Time | 2026-04-20 23:25 |
|---|---|
| Airport | Frankfurt-Hahn Airport (EDFH) |
Arrival
| Time | 2026-04-20 23:56 |
|---|---|
| Airport | Münster Osnabrück Airport (EDDG) |
| Time | Latitude | Longitude | Altitude | Speed | Heading |
|---|---|---|---|---|---|
| 2026-04-20 23:05 | 49.94700 | 7.26932 | 1616 ft | 0 kts | 32° |
| 2026-04-20 23:16 | 49.94692 | 7.26925 | 1619 ft | 2 kts | 36° |
| 2026-04-20 23:16 | 49.94679 | 7.26909 | 1616 ft | 2 kts | 44° |
| 2026-04-20 23:16 | 49.94668 | 7.26889 | 1623 ft | 2 kts | 96° |
| 2026-04-20 23:16 | 49.94674 | 7.26866 | 1620 ft | 2 kts | 123° |
| 2026-04-20 23:17 | 49.94683 | 7.26845 | 1622 ft | 2 kts | 123° |
| 2026-04-20 23:17 | 49.94692 | 7.26823 | 1624 ft | 2 kts | 123° |
| 2026-04-20 23:17 | 49.94701 | 7.26802 | 1618 ft | 2 kts | 123° |
| 2026-04-20 23:17 | 49.94710 | 7.26780 | 1623 ft | 2 kts | 123° |
| 2026-04-20 23:18 | 49.94719 | 7.26759 | 1617 ft | 2 kts | 123° |
| 2026-04-20 23:18 | 49.94728 | 7.26736 | 1621 ft | 2 kts | 150° |
| 2026-04-20 23:18 | 49.94742 | 7.26740 | 1623 ft | 2 kts | 208° |
| 2026-04-20 23:18 | 49.94746 | 7.26744 | 1623 ft | 0 kts | 212° |
| 2026-04-20 23:20 | 49.94742 | 7.26740 | 1624 ft | 5 kts | 211° |
| 2026-04-20 23:20 | 49.94660 | 7.26661 | 1623 ft | 15 kts | 209° |
| 2026-04-20 23:21 | 49.94573 | 7.26640 | 1619 ft | 12 kts | 195° |
| 2026-04-20 23:21 | 49.94507 | 7.26580 | 1626 ft | 12 kts | 214° |
| 2026-04-20 23:21 | 49.94405 | 7.26477 | 1628 ft | 21 kts | 214° |
| 2026-04-20 23:21 | 49.94283 | 7.26363 | 1626 ft | 20 kts | 215° |
| 2026-04-20 23:22 | 49.94174 | 7.26242 | 1631 ft | 19 kts | 213° |
| 2026-04-20 23:22 | 49.94060 | 7.26124 | 1630 ft | 20 kts | 213° |
| 2026-04-20 23:22 | 49.93945 | 7.26004 | 1630 ft | 20 kts | 214° |
| 2026-04-20 23:22 | 49.93835 | 7.25886 | 1634 ft | 16 kts | 225° |
| 2026-04-20 23:23 | 49.93846 | 7.25760 | 1633 ft | 6 kts | 301° |
| 2026-04-20 23:23 | 49.93847 | 7.25757 | 1633 ft | 0 kts | 301° |
| 2026-04-20 23:23 | 49.93863 | 7.25717 | 1633 ft | 15 kts | 301° |
| 2026-04-20 23:23 | 49.93952 | 7.25535 | 1630 ft | 21 kts | 330° |
| 2026-04-20 23:24 | 49.94014 | 7.25547 | 1631 ft | 1 kts | 31° |
| 2026-04-20 23:24 | 49.94133 | 7.25664 | 1630 ft | 56 kts | 32° |
| 2026-04-20 23:24 | 49.94662 | 7.26186 | 1618 ft | 122 kts | 32° |
| 2026-04-20 23:24 | 49.95529 | 7.27038 | 1629 ft | 169 kts | 33° |
| 2026-04-20 23:25 | 49.96517 | 7.28076 | 2237 ft | 170 kts | 33° |
| 2026-04-20 23:25 | 49.97472 | 7.29079 | 2950 ft | 166 kts | 34° |
| 2026-04-20 23:25 | 49.98514 | 7.29840 | 3508 ft | 171 kts | 12° |
| 2026-04-20 23:25 | 49.99767 | 7.30230 | 3826 ft | 196 kts | 11° |
| 2026-04-20 23:26 | 50.01188 | 7.30665 | 4206 ft | 220 kts | 11° |
| 2026-04-20 23:26 | 50.02770 | 7.31152 | 4641 ft | 244 kts | 11° |
| 2026-04-20 23:26 | 50.04483 | 7.31685 | 5337 ft | 256 kts | 11° |
| 2026-04-20 23:26 | 50.06255 | 7.32240 | 6181 ft | 263 kts | 11° |
| 2026-04-20 23:27 | 50.08067 | 7.32812 | 7032 ft | 268 kts | 11° |
| 2026-04-20 23:27 | 50.09933 | 7.33115 | 7861 ft | 272 kts | 358° |
| 2026-04-20 23:27 | 50.11839 | 7.33082 | 8726 ft | 276 kts | 358° |
| 2026-04-20 23:27 | 50.13776 | 7.33045 | 9597 ft | 280 kts | 358° |
| 2026-04-20 23:28 | 50.15740 | 7.33006 | 10395 ft | 287 kts | 358° |
| 2026-04-20 23:28 | 50.17816 | 7.32960 | 10711 ft | 310 kts | 358° |
| 2026-04-20 23:28 | 50.20056 | 7.32906 | 10953 ft | 333 kts | 358° |
| 2026-04-20 23:28 | 50.22425 | 7.32851 | 11430 ft | 345 kts | 358° |
| 2026-04-20 23:29 | 50.24847 | 7.32800 | 12135 ft | 350 kts | 358° |
| 2026-04-20 23:29 | 50.27298 | 7.32753 | 12892 ft | 354 kts | 358° |
| 2026-04-20 23:29 | 50.29769 | 7.32709 | 13643 ft | 357 kts | 358° |
| 2026-04-20 23:29 | 50.32269 | 7.32667 | 14348 ft | 361 kts | 358° |
| 2026-04-20 23:30 | 50.34793 | 7.32619 | 15006 ft | 364 kts | 358° |
| 2026-04-20 23:30 | 50.37307 | 7.32567 | 15644 ft | 368 kts | 358° |
| 2026-04-20 23:30 | 50.39873 | 7.32512 | 16279 ft | 371 kts | 358° |
| 2026-04-20 23:30 | 50.42469 | 7.32459 | 16905 ft | 375 kts | 358° |
| 2026-04-20 23:31 | 50.45093 | 7.32405 | 17545 ft | 378 kts | 358° |
| 2026-04-20 23:31 | 50.47732 | 7.32354 | 18155 ft | 382 kts | 358° |
| 2026-04-20 23:31 | 50.50400 | 7.32303 | 18720 ft | 385 kts | 358° |
| 2026-04-20 23:31 | 50.53094 | 7.32251 | 19095 ft | 388 kts | 358° |
| 2026-04-20 23:32 | 50.55793 | 7.32196 | 19189 ft | 388 kts | 358° |
| 2026-04-20 23:32 | 50.58489 | 7.32137 | 19212 ft | 388 kts | 358° |
| 2026-04-20 23:32 | 50.61190 | 7.32080 | 19214 ft | 388 kts | 358° |
| 2026-04-20 23:32 | 50.63889 | 7.32029 | 19214 ft | 388 kts | 358° |
| 2026-04-20 23:33 | 50.66586 | 7.31978 | 19216 ft | 388 kts | 358° |
| 2026-04-20 23:33 | 50.69285 | 7.31923 | 19216 ft | 388 kts | 358° |
| 2026-04-20 23:33 | 50.71949 | 7.31866 | 19219 ft | 388 kts | 358° |
| 2026-04-20 23:33 | 50.74648 | 7.31807 | 19220 ft | 388 kts | 358° |
| 2026-04-20 23:34 | 50.77387 | 7.31752 | 19218 ft | 388 kts | 358° |
| 2026-04-20 23:34 | 50.80086 | 7.31696 | 19218 ft | 388 kts | 358° |
| 2026-04-20 23:34 | 50.82786 | 7.31640 | 19221 ft | 388 kts | 358° |
| 2026-04-20 23:34 | 50.85489 | 7.31585 | 19219 ft | 388 kts | 358° |
| 2026-04-20 23:35 | 50.88154 | 7.31531 | 19219 ft | 388 kts | 358° |
| 2026-04-20 23:35 | 50.93553 | 7.31421 | 19222 ft | 388 kts | 358° |
| 2026-04-20 23:35 | 50.96255 | 7.31363 | 19220 ft | 388 kts | 358° |
| 2026-04-20 23:36 | 50.98955 | 7.31306 | 19221 ft | 388 kts | 359° |
| 2026-04-20 23:36 | 51.01653 | 7.31253 | 19224 ft | 388 kts | 359° |
| 2026-04-20 23:36 | 51.04352 | 7.31200 | 19225 ft | 388 kts | 359° |
| 2026-04-20 23:36 | 51.07051 | 7.31145 | 19223 ft | 387 kts | 358° |
| 2026-04-20 23:37 | 51.09745 | 7.31086 | 19227 ft | 387 kts | 359° |
| 2026-04-20 23:37 | 51.12401 | 7.31031 | 19225 ft | 387 kts | 359° |
| 2026-04-20 23:37 | 51.15086 | 7.30977 | 19227 ft | 387 kts | 359° |
| 2026-04-20 23:37 | 51.17781 | 7.30934 | 19225 ft | 387 kts | 1° |
| 2026-04-20 23:38 | 51.20455 | 7.31377 | 19229 ft | 387 kts | 11° |
| 2026-04-20 23:38 | 51.23033 | 7.32613 | 19229 ft | 388 kts | 20° |
| 2026-04-20 23:38 | 51.25539 | 7.34202 | 19231 ft | 388 kts | 21° |
| 2026-04-20 23:38 | 51.28022 | 7.35882 | 19233 ft | 388 kts | 23° |
| 2026-04-20 23:39 | 51.30489 | 7.37627 | 19237 ft | 387 kts | 24° |
| 2026-04-20 23:39 | 51.32941 | 7.39404 | 19238 ft | 387 kts | 24° |
| 2026-04-20 23:39 | 51.35392 | 7.41201 | 19242 ft | 391 kts | 24° |
| 2026-04-20 23:39 | 51.37918 | 7.43053 | 19247 ft | 408 kts | 24° |
| 2026-04-20 23:40 | 51.40519 | 7.44950 | 19242 ft | 424 kts | 24° |
| 2026-04-20 23:40 | 51.43239 | 7.46923 | 19243 ft | 432 kts | 24° |
| 2026-04-20 23:40 | 51.45993 | 7.48910 | 19246 ft | 434 kts | 24° |
| 2026-04-20 23:40 | 51.48750 | 7.50895 | 19246 ft | 435 kts | 24° |
| 2026-04-20 23:41 | 51.51511 | 7.52886 | 19246 ft | 435 kts | 24° |
| 2026-04-20 23:41 | 51.54269 | 7.54877 | 19247 ft | 435 kts | 24° |
| 2026-04-20 23:41 | 51.57030 | 7.56874 | 19244 ft | 435 kts | 24° |
| 2026-04-20 23:41 | 51.59788 | 7.58879 | 19186 ft | 436 kts | 24° |
| 2026-04-20 23:42 | 51.62509 | 7.60864 | 18388 ft | 434 kts | 24° |
| 2026-04-20 23:42 | 51.65253 | 7.62867 | 17468 ft | 432 kts | 24° |
| 2026-04-20 23:42 | 51.67934 | 7.64826 | 16557 ft | 414 kts | 24° |
| 2026-04-20 23:42 | 51.70500 | 7.66698 | 15676 ft | 397 kts | 24° |
| 2026-04-20 23:43 | 51.72973 | 7.68499 | 14890 ft | 382 kts | 24° |
| 2026-04-20 23:43 | 51.75324 | 7.70216 | 14416 ft | 361 kts | 24° |
| 2026-04-20 23:43 | 51.77559 | 7.71851 | 13917 ft | 344 kts | 24° |
| 2026-04-20 23:43 | 51.79687 | 7.73411 | 13372 ft | 329 kts | 25° |
| 2026-04-20 23:44 | 51.81732 | 7.74915 | 12833 ft | 317 kts | 25° |
| 2026-04-20 23:44 | 51.83705 | 7.76367 | 12313 ft | 306 kts | 25° |
| 2026-04-20 23:44 | 51.85590 | 7.77834 | 11787 ft | 297 kts | 27° |
| 2026-04-20 23:44 | 51.87360 | 7.79373 | 11297 ft | 289 kts | 29° |
| 2026-04-20 23:45 | 51.89085 | 7.80955 | 10792 ft | 282 kts | 30° |
| 2026-04-20 23:45 | 51.90772 | 7.82526 | 10349 ft | 278 kts | 30° |
| 2026-04-20 23:45 | 51.92445 | 7.84083 | 10248 ft | 277 kts | 30° |
| 2026-04-20 23:45 | 51.94126 | 7.85639 | 10260 ft | 279 kts | 30° |
| 2026-04-20 23:46 | 51.95813 | 7.87189 | 10260 ft | 278 kts | 30° |
| 2026-04-20 23:46 | 51.97500 | 7.88727 | 10265 ft | 278 kts | 30° |
| 2026-04-20 23:46 | 51.99186 | 7.90265 | 10264 ft | 278 kts | 31° |
| 2026-04-20 23:46 | 52.00734 | 7.92129 | 10263 ft | 278 kts | 42° |
| 2026-04-20 23:47 | 52.02182 | 7.94210 | 10264 ft | 278 kts | 41° |
| 2026-04-20 23:47 | 52.03632 | 7.96279 | 10263 ft | 278 kts | 41° |
| 2026-04-20 23:47 | 52.05070 | 7.98326 | 10019 ft | 282 kts | 41° |
| 2026-04-20 23:47 | 52.06565 | 8.00457 | 9116 ft | 288 kts | 41° |
| 2026-04-20 23:48 | 52.08053 | 8.02631 | 8264 ft | 287 kts | 46° |
| 2026-04-20 23:48 | 52.09225 | 8.05250 | 7429 ft | 286 kts | 58° |
| 2026-04-20 23:48 | 52.10247 | 8.07977 | 6889 ft | 277 kts | 60° |
| 2026-04-20 23:48 | 52.11117 | 8.10706 | 6371 ft | 267 kts | 63° |
| 2026-04-20 23:49 | 52.11915 | 8.13380 | 5854 ft | 259 kts | 64° |
| 2026-04-20 23:49 | 52.12759 | 8.15934 | 5325 ft | 255 kts | 53° |
| 2026-04-20 23:49 | 52.14065 | 8.17836 | 4803 ft | 254 kts | 30° |
| 2026-04-20 23:49 | 52.15753 | 8.18668 | 4280 ft | 259 kts | 5° |
| 2026-04-20 23:50 | 52.17551 | 8.18379 | 3891 ft | 260 kts | 346° |
| 2026-04-20 23:50 | 52.19139 | 8.17186 | 3892 ft | 245 kts | 328° |
| 2026-04-20 23:50 | 52.20370 | 8.15408 | 3658 ft | 242 kts | 312° |
| 2026-04-20 23:50 | 52.21230 | 8.13088 | 3637 ft | 231 kts | 293° |
| 2026-04-20 23:51 | 52.21649 | 8.10592 | 3449 ft | 232 kts | 277° |
| 2026-04-20 23:51 | 52.21629 | 8.07973 | 3189 ft | 231 kts | 260° |
| 2026-04-20 23:51 | 52.21188 | 8.05473 | 3028 ft | 229 kts | 250° |
| 2026-04-20 23:51 | 52.20679 | 8.03005 | 3000 ft | 230 kts | 250° |
| 2026-04-20 23:52 | 52.20169 | 8.00528 | 2997 ft | 230 kts | 250° |
| 2026-04-20 23:52 | 52.19660 | 7.98074 | 3013 ft | 224 kts | 250° |
| 2026-04-20 23:52 | 52.19174 | 7.95734 | 3006 ft | 214 kts | 250° |
| 2026-04-20 23:52 | 52.18703 | 7.93473 | 3003 ft | 209 kts | 250° |
| 2026-04-20 23:53 | 52.18235 | 7.91230 | 2953 ft | 209 kts | 250° |
| 2026-04-20 23:53 | 52.17768 | 7.88995 | 2726 ft | 209 kts | 250° |
| 2026-04-20 23:53 | 52.17298 | 7.86746 | 2458 ft | 211 kts | 249° |
| 2026-04-20 23:53 | 52.16821 | 7.84464 | 2169 ft | 214 kts | 249° |
| 2026-04-20 23:54 | 52.16341 | 7.82173 | 1889 ft | 210 kts | 249° |
| 2026-04-20 23:54 | 52.15897 | 7.80049 | 1594 ft | 194 kts | 250° |
| 2026-04-20 23:54 | 52.15481 | 7.78066 | 1349 ft | 175 kts | 250° |
| 2026-04-20 23:54 | 52.15106 | 7.76277 | 1079 ft | 159 kts | 251° |
| 2026-04-20 23:55 | 52.14753 | 7.74633 | 853 ft | 151 kts | 251° |
| 2026-04-20 23:55 | 52.14431 | 7.73043 | 645 ft | 146 kts | 253° |
| 2026-04-20 23:55 | 52.14088 | 7.71491 | 452 ft | 145 kts | 252° |
| 2026-04-20 23:55 | 52.13779 | 7.69961 | 248 ft | 141 kts | 251° |
| 2026-04-20 23:56 | 52.13477 | 7.68544 | 170 ft | 121 kts | 252° |
| 2026-04-20 23:56 | 52.13271 | 7.67563 | 165 ft | 61 kts | 251° |
| 2026-04-20 23:56 | 52.13169 | 7.67087 | 166 ft | 26 kts | 246° |
| 2026-04-20 23:56 | 52.13092 | 7.67057 | 167 ft | 10 kts | 161° |
| 2026-04-20 23:57 | 52.13059 | 7.67095 | 167 ft | 0 kts | 130° |
| 2026-04-20 23:58 | 52.13053 | 7.67107 | 167 ft | 8 kts | 129° |
| 2026-04-20 23:58 | 52.13033 | 7.67257 | 167 ft | 16 kts | 80° |
| 2026-04-20 23:58 | 52.13067 | 7.67433 | 167 ft | 17 kts | 70° |
| 2026-04-20 23:59 | 52.13107 | 7.67625 | 167 ft | 19 kts | 71° |
| 2026-04-20 23:59 | 52.13152 | 7.67832 | 167 ft | 20 kts | 70° |
| 2026-04-20 23:59 | 52.13199 | 7.68053 | 168 ft | 21 kts | 71° |
| 2026-04-20 23:59 | 52.13247 | 7.68279 | 168 ft | 21 kts | 71° |
| 2026-04-21 00:00 | 52.13296 | 7.68513 | 168 ft | 22 kts | 71° |
| 2026-04-21 00:00 | 52.13340 | 7.68723 | 168 ft | 5 kts | 71° |
| 2026-04-21 00:00 | 52.13350 | 7.68778 | 168 ft | 8 kts | 78° |
| 2026-04-21 00:00 | 52.13303 | 7.68867 | 167 ft | 12 kts | 169° |
| 2026-04-21 00:01 | 52.13231 | 7.68915 | 167 ft | 10 kts | 159° |
| 2026-04-21 00:01 | 52.13169 | 7.68958 | 167 ft | 8 kts | 144° |
| 2026-04-21 00:01 | 52.13165 | 7.69038 | 167 ft | 7 kts | 75° |
| 2026-04-21 00:01 | 52.13189 | 7.69149 | 167 ft | 12 kts | 71° |
| 2026-04-21 00:02 | 52.13191 | 7.69227 | 167 ft | 3 kts | 158° |
| 2026-04-21 00:02 | 52.13157 | 7.69221 | 167 ft | 10 kts | 196° |
| 2026-04-21 00:02 | 52.13126 | 7.69207 | 167 ft | 1 kts | 196° |
| 2026-04-21 00:02 | 52.13125 | 7.69206 | 167 ft | 0 kts | 196° |